createdAt,value
2023-04-24T00:02:25.431Z,1.20
2023-04-24T00:05:13.787Z,1.38
2023-04-24T00:08:01.483Z,1.20
2023-04-24T00:10:49.560Z,0.80
2023-04-24T00:13:37.298Z,1.13
2023-04-24T00:16:25.334Z,1.08
2023-04-24T00:19:14.541Z,1.20
2023-04-24T00:22:01.725Z,1.20
2023-04-24T00:24:49.370Z,1.10
2023-04-24T00:27:38.586Z,0.95
2023-04-24T00:30:26.615Z,1.00
2023-04-24T00:33:14.626Z,1.50
2023-04-24T00:36:04.015Z,0.85
2023-04-24T00:38:51.113Z,0.90
2023-04-24T00:41:38.742Z,1.05
2023-04-24T00:44:27.117Z,0.60
2023-04-24T00:47:16.450Z,0.88
2023-04-24T00:50:04.967Z,0.70
2023-04-24T00:52:53.934Z,0.85
2023-04-24T00:55:42.187Z,0.90
2023-04-24T00:58:32.018Z,1.00
2023-04-24T01:01:22.041Z,2.03
2023-04-24T01:04:09.849Z,0.90
2023-04-24T01:06:58.562Z,0.90
2023-04-24T01:09:50.371Z,0.60
2023-04-24T01:12:39.915Z,0.70
2023-04-24T01:15:28.151Z,0.75
2023-04-24T01:18:16.400Z,0.60
2023-04-24T01:21:06.953Z,0.60
2023-04-24T01:23:56.770Z,0.68
2023-04-24T01:26:44.457Z,0.70
2023-04-24T01:29:32.915Z,1.10
2023-04-24T01:32:21.266Z,0.50
2023-04-24T01:35:10.855Z,0.55
2023-04-24T01:38:02.409Z,0.52
2023-04-24T01:40:56.900Z,0.50
2023-04-24T01:43:54.226Z,0.75
2023-04-24T01:46:48.664Z,0.55
2023-04-24T01:49:38.523Z,0.70
2023-04-24T01:52:38.406Z,0.60
2023-04-24T01:55:29.232Z,0.60
2023-04-24T01:58:23.137Z,0.77
2023-04-24T02:01:18.057Z,0.65
2023-04-24T02:04:07.052Z,0.60
2023-04-24T02:06:58.688Z,0.50
2023-04-24T02:09:50.175Z,0.63
2023-04-24T02:12:43.167Z,0.77
2023-04-24T02:15:38.594Z,1.13
2023-04-24T02:18:29.423Z,0.60
2023-04-24T02:21:20.266Z,0.60
2023-04-24T02:24:10.237Z,0.35
2023-04-24T02:27:03.881Z,0.40
2023-04-24T02:32:46.406Z,0.50
2023-04-24T02:35:36.839Z,0.50
2023-04-24T02:38:30.314Z,0.50
2023-04-24T02:41:20.849Z,0.60
2023-04-24T02:44:10.802Z,0.43
2023-04-24T02:47:01.191Z,0.43
2023-04-24T02:49:59.829Z,0.60
2023-04-24T02:52:49.331Z,0.55
2023-04-24T02:55:40.959Z,0.70
2023-04-24T02:58:34.141Z,0.60
2023-04-24T03:04:16.360Z,0.40
2023-04-24T03:07:10.343Z,0.50
2023-04-24T03:10:02.831Z,0.52
2023-04-24T03:12:52.200Z,0.80
2023-04-24T03:15:40.306Z,0.40
2023-04-24T03:18:27.986Z,0.57
2023-04-24T03:21:15.750Z,0.52
2023-04-24T03:24:06.028Z,0.55
2023-04-24T03:26:53.297Z,0.68
2023-04-24T03:30:02.211Z,0.60
2023-04-24T03:33:00.578Z,0.90
2023-04-24T03:35:51.578Z,0.63
2023-04-24T03:38:38.988Z,0.73
2023-04-24T03:41:48.032Z,0.88
2023-04-24T03:44:35.422Z,0.60
2023-04-24T03:47:22.715Z,0.90
2023-04-24T03:50:12.494Z,1.00
2023-04-24T03:53:02.160Z,0.70
2023-04-24T03:55:57.232Z,0.70
2023-04-24T03:58:48.910Z,0.88
2023-04-24T04:01:39.201Z,0.70
2023-04-24T04:04:32.665Z,0.85
2023-04-24T04:07:21.696Z,0.90
2023-04-24T04:10:10.420Z,0.70
2023-04-24T04:12:58.927Z,0.80
2023-04-24T04:15:48.625Z,0.68
2023-04-24T04:18:36.335Z,0.70
2023-04-24T04:21:26.414Z,0.80
2023-04-24T04:24:21.477Z,0.77
2023-04-24T04:27:09.971Z,0.70
2023-04-24T04:30:07.497Z,0.70
2023-04-24T04:33:05.416Z,1.17
2023-04-24T04:35:54.705Z,0.90
2023-04-24T04:38:44.080Z,0.80
2023-04-24T04:41:50.090Z,0.95
2023-04-24T04:44:39.817Z,0.85
2023-04-24T04:47:29.831Z,0.90
2023-04-24T04:50:22.069Z,0.80
2023-04-24T04:53:20.642Z,0.88
2023-04-24T04:56:09.134Z,0.90
2023-04-24T04:59:02.614Z,0.85
2023-04-24T05:01:51.022Z,0.80
2023-04-24T05:04:39.439Z,0.77
2023-04-24T05:07:28.591Z,0.60
2023-04-24T05:10:17.223Z,0.73
2023-04-24T05:13:05.192Z,0.70
2023-04-24T05:15:53.934Z,0.80
2023-04-24T05:18:41.671Z,0.80
2023-04-24T05:21:32.004Z,0.57
2023-04-24T05:24:21.445Z,0.57
2023-04-24T05:27:23.726Z,0.45
2023-04-24T05:30:12.265Z,0.85
2023-04-24T05:33:02.214Z,0.70
2023-04-24T05:35:51.209Z,0.60
2023-04-24T05:38:39.651Z,0.60
2023-04-24T05:41:28.978Z,0.40
2023-04-24T05:44:16.600Z,0.50
2023-04-24T05:47:05.324Z,0.40
2023-04-24T05:49:54.367Z,0.40
2023-04-24T05:52:43.528Z,0.40
2023-04-24T05:55:46.625Z,0.43
2023-04-24T05:58:45.918Z,0.45
2023-04-24T06:01:39.913Z,0.35
2023-04-24T06:04:37.804Z,0.50
2023-04-24T06:07:29.225Z,0.50
2023-04-24T06:10:19.953Z,0.65
2023-04-24T06:13:11.382Z,0.35
2023-04-24T06:16:07.184Z,0.53
2023-04-24T06:19:01.149Z,0.50
2023-04-24T06:21:52.989Z,0.32
2023-04-24T06:24:45.130Z,0.40
2023-04-24T06:27:35.277Z,0.25
2023-04-24T06:30:29.425Z,0.57
2023-04-24T06:33:27.065Z,0.40
2023-04-24T06:36:17.252Z,0.20
2023-04-24T06:41:57.721Z,0.50
2023-04-24T06:44:46.403Z,0.30
2023-04-24T06:47:34.459Z,0.40
2023-04-24T06:50:23.880Z,0.35
2023-04-24T06:53:13.989Z,0.30
2023-04-24T06:56:01.637Z,0.20
2023-04-24T06:58:52.567Z,0.20
2023-04-24T07:01:43.305Z,0.30
2023-04-24T07:04:31.468Z,0.30
2023-04-24T07:07:31.707Z,0.30
2023-04-24T07:10:23.583Z,0.40
2023-04-24T07:13:11.746Z,0.30
2023-04-24T07:16:02.679Z,0.30
2023-04-24T07:18:50.411Z,0.35
2023-04-24T07:21:39.454Z,0.40
2023-04-24T07:24:34.832Z,0.35
2023-04-24T07:27:26.444Z,0.20
2023-04-24T07:30:23.533Z,0.20
2023-04-24T07:33:15.884Z,0.30
2023-04-24T07:36:10.255Z,0.30
2023-04-24T07:39:01.194Z,0.40
2023-04-24T07:41:54.927Z,0.30
2023-04-24T07:44:53.062Z,0.55
2023-04-24T07:47:45.352Z,0.30
2023-04-24T07:50:37.923Z,0.25
2023-04-24T07:53:28.532Z,0.50
2023-04-24T07:56:18.922Z,0.28
2023-04-24T07:59:11.728Z,0.30
2023-04-24T08:02:13.531Z,0.30
2023-04-24T08:05:07.638Z,0.30
2023-04-24T08:07:59.524Z,0.40
2023-04-24T08:10:52.699Z,2.38
2023-04-24T08:13:47.913Z,0.38
2023-04-24T08:16:40.912Z,0.40
2023-04-24T08:19:28.531Z,0.28
2023-04-24T08:22:16.593Z,0.30
2023-04-24T08:25:04.827Z,0.40
2023-04-24T08:27:52.495Z,0.40
2023-04-24T08:30:40.758Z,0.40
2023-04-24T08:33:36.147Z,0.30
2023-04-24T08:36:36.024Z,0.80
2023-04-24T08:39:31.628Z,0.40
2023-04-24T08:42:22.549Z,0.43
2023-04-24T08:45:11.151Z,0.68
2023-04-24T08:48:01.184Z,0.90
2023-04-24T08:50:54.039Z,1.00
2023-04-24T08:53:43.898Z,0.82
2023-04-24T08:56:35.606Z,0.80
2023-04-24T08:59:29.460Z,1.10
2023-04-24T09:02:21.094Z,1.00
2023-04-24T09:05:11.320Z,0.90
2023-04-24T09:08:07.130Z,0.75
2023-04-24T09:10:57.240Z,0.80
2023-04-24T09:13:48.996Z,0.80
2023-04-24T09:16:40.274Z,1.50
2023-04-24T09:19:32.628Z,0.80
2023-04-24T09:22:24.416Z,0.80
2023-04-24T09:25:16.347Z,1.00
2023-04-24T09:28:07.708Z,0.75
2023-04-24T09:31:09.585Z,0.77
2023-04-24T09:34:02.407Z,0.80
2023-04-24T09:36:53.368Z,0.90
2023-04-24T09:39:43.483Z,0.90
2023-04-24T09:42:36.358Z,1.10
2023-04-24T09:45:32.444Z,0.75
2023-04-24T09:48:24.023Z,0.98
2023-04-24T09:51:16.546Z,0.90
2023-04-24T09:54:20.578Z,0.90
2023-04-24T09:57:19.362Z,0.90
2023-04-24T10:00:14.671Z,1.00
2023-04-24T10:03:06.087Z,0.85
2023-04-24T10:06:10.437Z,0.97
2023-04-24T10:09:03.533Z,1.13
2023-04-24T10:11:57.873Z,1.10
2023-04-24T10:14:50.682Z,0.80
2023-04-24T10:17:45.476Z,0.90
2023-04-24T10:20:35.620Z,0.90
2023-04-24T10:23:29.730Z,0.90
2023-04-24T10:26:24.679Z,1.13
2023-04-24T10:29:17.227Z,1.00
2023-04-24T10:32:06.794Z,1.05
2023-04-24T10:34:59.459Z,1.13
2023-04-24T10:37:59.534Z,1.20
2023-04-24T10:40:52.544Z,1.00
2023-04-24T10:43:46.942Z,1.15
2023-04-24T10:46:37.940Z,1.20
2023-04-24T10:49:34.424Z,1.20
2023-04-24T10:52:25.187Z,1.00
2023-04-24T10:55:17.476Z,1.20
2023-04-24T10:58:07.144Z,0.60
2023-04-24T11:01:05.261Z,0.90
2023-04-24T11:03:58.955Z,0.85
2023-04-24T11:06:49.457Z,0.70
2023-04-24T11:09:46.463Z,0.50
2023-04-24T11:12:42.430Z,0.85
2023-04-24T11:15:34.990Z,0.65
2023-04-24T11:18:27.678Z,0.55
2023-04-24T11:21:22.002Z,0.90
2023-04-24T11:24:46.046Z,0.80
2023-04-24T11:27:41.608Z,0.90
2023-04-24T11:30:34.195Z,0.95
2023-04-24T11:33:24.391Z,1.07
2023-04-24T11:36:14.785Z,0.90
2023-04-24T11:39:07.496Z,0.98
2023-04-24T11:42:10.834Z,1.00
2023-04-24T11:45:05.318Z,0.90
2023-04-24T11:48:00.770Z,1.00
2023-04-24T11:50:53.770Z,1.20
2023-04-24T11:53:58.160Z,0.80
2023-04-24T11:56:55.648Z,0.80
2023-04-24T11:59:46.582Z,0.88
2023-04-24T12:02:39.811Z,0.90
2023-04-24T12:05:34.455Z,1.17
2023-04-24T12:08:37.280Z,0.90
2023-04-24T12:11:39.951Z,1.00
2023-04-24T12:14:34.777Z,0.85
2023-04-24T12:17:31.853Z,0.95
2023-04-24T12:20:30.231Z,0.93
2023-04-24T12:23:39.985Z,0.85
2023-04-24T12:26:31.058Z,0.98
2023-04-24T12:29:25.719Z,1.00
2023-04-24T12:32:22.429Z,0.75
2023-04-24T12:35:11.830Z,0.93
2023-04-24T12:38:09.315Z,1.13
2023-04-24T12:41:07.131Z,0.80
2023-04-24T12:44:05.038Z,1.10
2023-04-24T12:47:09.637Z,0.80
2023-04-24T12:49:59.681Z,0.70
2023-04-24T12:52:53.001Z,0.63
2023-04-24T12:55:46.997Z,0.82
2023-04-24T12:58:42.270Z,0.90
2023-04-24T13:01:37.714Z,0.90
2023-04-24T13:04:29.983Z,0.60
2023-04-24T13:07:24.949Z,0.70
2023-04-24T13:10:19.326Z,1.00
2023-04-24T13:13:13.502Z,1.00
2023-04-24T13:16:09.106Z,1.02
2023-04-24T13:18:59.845Z,0.93
2023-04-24T13:21:54.269Z,1.30
2023-04-24T13:24:45.267Z,0.98
2023-04-24T13:27:37.565Z,1.00
2023-04-24T13:30:30.475Z,1.20
2023-04-24T13:33:25.257Z,1.20
2023-04-24T13:36:21.179Z,1.00
2023-04-24T13:39:11.229Z,1.27
2023-04-24T13:42:05.407Z,1.20
2023-04-24T13:45:17.324Z,1.00
2023-04-24T13:48:14.182Z,1.00
2023-04-24T13:51:09.589Z,1.10
2023-04-24T13:54:01.472Z,0.90
2023-04-24T13:56:56.761Z,1.00
2023-04-24T13:59:47.250Z,1.10
2023-04-24T14:02:39.757Z,1.00
2023-04-24T14:05:32.522Z,0.90
2023-04-24T14:08:29.891Z,1.20
2023-04-24T14:11:24.958Z,1.13
2023-04-24T14:14:16.147Z,2.72
2023-04-24T14:17:09.153Z,1.00
2023-04-24T14:20:03.663Z,1.30
2023-04-24T14:22:55.172Z,1.40
2023-04-24T14:25:53.324Z,1.10
2023-04-24T14:28:46.271Z,1.20
2023-04-24T14:31:42.677Z,1.52
2023-04-24T14:34:34.996Z,1.13
2023-04-24T14:37:31.430Z,1.13
2023-04-24T14:43:21.586Z,1.30
2023-04-24T14:46:17.881Z,3.53
2023-04-24T14:49:11.569Z,1.30
2023-04-24T14:52:06.101Z,1.30
2023-04-24T14:54:56.283Z,1.42
2023-04-24T14:57:50.071Z,1.40
2023-04-24T15:00:41.610Z,1.00
2023-04-24T15:03:31.298Z,1.10
2023-04-24T15:06:22.026Z,1.30
2023-04-24T15:09:13.645Z,1.00
2023-04-24T15:12:06.948Z,1.10
2023-04-24T15:15:01.634Z,1.20
2023-04-24T15:17:57.282Z,1.35
2023-04-24T15:20:52.841Z,1.20
2023-04-24T15:23:46.810Z,1.38
2023-04-24T15:26:36.992Z,1.20
2023-04-24T15:29:29.237Z,0.95
2023-04-24T15:32:22.769Z,1.17
2023-04-24T15:35:14.884Z,1.02
2023-04-24T15:38:10.238Z,0.95
2023-04-24T15:41:01.378Z,0.95
2023-04-24T15:43:57.115Z,1.05
2023-04-24T15:46:46.748Z,1.08
2023-04-24T15:49:39.158Z,1.02
2023-04-24T15:52:29.020Z,1.10
2023-04-24T15:55:16.773Z,0.77
2023-04-24T15:58:04.947Z,1.05
2023-04-24T16:00:54.378Z,0.70
2023-04-24T16:03:42.596Z,1.00
2023-04-24T16:06:31.114Z,0.95
2023-04-24T16:09:20.758Z,0.85
2023-04-24T16:12:10.608Z,1.40
2023-04-24T16:15:01.004Z,0.70
2023-04-24T16:18:05.918Z,0.88
2023-04-24T16:20:57.801Z,0.88
2023-04-24T16:23:49.757Z,0.90
2023-04-24T16:26:42.028Z,0.68
2023-04-24T16:29:34.648Z,0.70
2023-04-24T16:32:23.998Z,0.55
2023-04-24T16:35:28.653Z,0.70
2023-04-24T16:38:23.935Z,0.90
2023-04-24T16:41:13.099Z,0.70
2023-04-24T16:44:08.952Z,0.68
2023-04-24T16:47:01.686Z,0.80
2023-04-24T16:49:53.035Z,0.90
2023-04-24T16:52:46.476Z,0.80
2023-04-24T16:55:38.184Z,0.60
2023-04-24T16:58:29.802Z,0.80
2023-04-24T17:01:22.210Z,0.75
2023-04-24T17:04:11.363Z,0.70
2023-04-24T17:06:59.854Z,0.60
2023-04-24T17:09:48.134Z,0.90
2023-04-24T17:12:35.638Z,0.52
2023-04-24T17:15:23.339Z,0.73
2023-04-24T17:18:13.249Z,0.75
2023-04-24T17:21:01.271Z,0.70
2023-04-24T17:23:49.345Z,0.85
2023-04-24T17:26:37.573Z,0.80
2023-04-24T17:29:25.609Z,0.90
2023-04-24T17:32:13.323Z,0.60
2023-04-24T17:35:03.981Z,0.70
2023-04-24T17:37:52.073Z,0.80
2023-04-24T17:40:40.698Z,0.98
2023-04-24T17:43:28.825Z,0.80
2023-04-24T17:46:16.646Z,0.80
2023-04-24T17:49:07.472Z,0.70
2023-04-24T17:51:56.645Z,0.90
2023-04-24T17:54:44.329Z,1.20
2023-04-24T17:57:32.116Z,0.90
2023-04-24T18:00:19.887Z,0.98
2023-04-24T18:03:09.609Z,1.08
2023-04-24T18:05:57.203Z,0.98
2023-04-24T18:08:46.645Z,0.90
2023-04-24T18:11:34.985Z,0.80
2023-04-24T18:14:23.639Z,0.90
2023-04-24T18:17:11.460Z,0.90
2023-04-24T18:19:59.145Z,0.88
2023-04-24T18:22:47.517Z,1.10
2023-04-24T18:25:37.054Z,1.10
2023-04-24T18:28:25.117Z,0.90
2023-04-24T18:31:13.345Z,1.15
2023-04-24T18:34:01.052Z,1.08
2023-04-24T18:36:49.318Z,1.00
2023-04-24T18:39:37.104Z,1.20
2023-04-24T18:42:26.288Z,1.30
2023-04-24T18:45:15.444Z,1.20
2023-04-24T18:48:04.132Z,1.10
2023-04-24T18:50:51.791Z,1.25
2023-04-24T18:53:39.271Z,1.20
2023-04-24T18:56:27.158Z,1.20
2023-04-24T18:59:16.145Z,1.20
2023-04-24T19:02:04.060Z,1.10
2023-04-24T19:04:51.820Z,1.20
2023-04-24T19:07:39.204Z,1.20
2023-04-24T19:10:27.875Z,1.20
2023-04-24T19:13:15.740Z,1.52
2023-04-24T19:16:05.083Z,1.23
2023-04-24T19:18:52.691Z,1.33
2023-04-24T19:21:40.186Z,1.20
2023-04-24T19:24:29.415Z,1.25
2023-04-24T19:27:17.405Z,1.10
2023-04-24T19:30:05.256Z,1.00
2023-04-24T19:32:54.318Z,1.25
2023-04-24T19:35:41.646Z,1.30
2023-04-24T19:38:29.563Z,1.30
2023-04-24T19:41:18.427Z,1.35
2023-04-24T19:44:06.661Z,1.35
2023-04-24T19:46:55.030Z,1.23
2023-04-24T19:49:44.173Z,1.45
2023-04-24T19:52:31.851Z,1.25
2023-04-24T19:55:20.599Z,1.30
2023-04-24T19:58:11.998Z,1.30
2023-04-24T20:01:04.451Z,1.30
2023-04-24T20:03:54.020Z,1.23
2023-04-24T20:06:46.367Z,1.65
2023-04-24T20:09:37.508Z,1.40
2023-04-24T20:12:29.855Z,1.60
2023-04-24T20:15:21.655Z,1.65
2023-04-24T20:18:11.032Z,1.90
2023-04-24T20:21:00.245Z,1.40
2023-04-24T20:23:53.721Z,1.73
2023-04-24T20:26:45.910Z,1.73
2023-04-24T20:29:34.140Z,1.67
2023-04-24T20:32:23.005Z,1.45
2023-04-24T20:35:12.754Z,1.25
2023-04-24T20:38:03.646Z,1.50
2023-04-24T20:40:58.436Z,1.20
2023-04-24T20:43:49.979Z,1.52
2023-04-24T20:46:39.064Z,1.42
2023-04-24T20:49:35.132Z,2.00
2023-04-24T20:52:29.604Z,1.70
2023-04-24T20:55:21.665Z,1.67
2023-04-24T20:58:13.012Z,3.07
2023-04-24T21:01:04.955Z,2.28
2023-04-24T21:03:54.144Z,2.00
2023-04-24T21:06:43.155Z,2.05
2023-04-24T21:09:32.105Z,1.80
2023-04-24T21:12:21.867Z,2.00
2023-04-24T21:15:15.392Z,1.95
2023-04-24T21:18:08.089Z,2.10
2023-04-24T21:20:57.467Z,1.70
2023-04-24T21:23:47.055Z,1.88
2023-04-24T21:26:38.705Z,2.10
2023-04-24T21:29:30.320Z,1.80
2023-04-24T21:32:37.214Z,1.95
2023-04-24T21:35:26.769Z,1.75
2023-04-24T21:38:24.322Z,1.65
2023-04-24T21:41:13.251Z,1.77
2023-04-24T21:44:02.435Z,2.03
2023-04-24T21:46:55.189Z,2.22
2023-04-24T21:49:46.468Z,1.90
2023-04-24T21:52:37.726Z,1.98
2023-04-24T21:55:31.095Z,1.92
2023-04-24T21:58:23.740Z,2.25
2023-04-24T22:01:15.402Z,1.87
2023-04-24T22:04:04.818Z,1.73
2023-04-24T22:06:59.805Z,1.88
2023-04-24T22:09:49.673Z,1.77
2023-04-24T22:12:41.552Z,1.90
2023-04-24T22:15:31.843Z,1.92
2023-04-24T22:18:26.371Z,1.90
2023-04-24T22:21:24.660Z,1.70
2023-04-24T22:24:17.749Z,2.05
2023-04-24T22:27:06.013Z,2.10
2023-04-24T22:29:59.236Z,1.88
2023-04-24T22:32:50.146Z,1.70
2023-04-24T22:35:41.717Z,1.98
2023-04-24T22:38:34.357Z,1.77
2023-04-24T22:41:28.580Z,2.15
2023-04-24T22:44:22.651Z,1.90
2023-04-24T22:47:11.525Z,1.98
2023-04-24T22:50:01.207Z,2.08
2023-04-24T22:52:51.022Z,2.45
2023-04-24T22:55:40.145Z,1.98
2023-04-24T22:58:31.362Z,1.75
2023-04-24T23:01:20.204Z,2.00
2023-04-24T23:04:13.333Z,2.20
2023-04-24T23:07:04.896Z,2.22
2023-04-24T23:09:53.206Z,1.90
2023-04-24T23:12:42.302Z,2.10
2023-04-24T23:15:33.296Z,1.98
2023-04-24T23:18:23.481Z,1.98
2023-04-24T23:21:23.508Z,1.80
2023-04-24T23:24:13.168Z,2.10
2023-04-24T23:27:02.763Z,1.90
2023-04-24T23:30:01.184Z,2.60
2023-04-24T23:32:53.921Z,1.80
2023-04-24T23:35:43.116Z,2.03
2023-04-24T23:38:46.520Z,1.73
2023-04-24T23:41:39.447Z,2.17
2023-04-24T23:44:28.827Z,2.25
2023-04-24T23:47:17.994Z,2.15
2023-04-24T23:50:13.265Z,2.35
2023-04-24T23:53:05.587Z,1.90
2023-04-24T23:55:55.275Z,2.25
2023-04-24T23:58:48.885Z,2.00
